createdAt,value
2018-12-30T00:02:40.383Z,63.36
2018-12-30T00:07:14.026Z,63.43
2018-12-30T00:11:19.435Z,63.68
2018-12-30T00:15:24.366Z,63.61
2018-12-30T00:19:31.071Z,63.91
2018-12-30T00:23:36.303Z,63.17
2018-12-30T00:27:41.387Z,63.95
2018-12-30T00:31:46.751Z,63.68
2018-12-30T00:35:51.950Z,63.53
2018-12-30T00:39:57.009Z,63.65
2018-12-30T00:44:02.355Z,63.29
2018-12-30T00:48:07.482Z,63.36
2018-12-30T00:52:12.778Z,63.34
2018-12-30T00:56:18.543Z,63.27
2018-12-30T01:00:23.716Z,62.79
2018-12-30T01:04:29.367Z,63.08
2018-12-30T01:08:34.442Z,63.42
2018-12-30T01:12:39.920Z,63.83
2018-12-30T01:16:44.986Z,64.06
2018-12-30T01:20:50.250Z,64.36
2018-12-30T01:24:55.873Z,64.48
2018-12-30T01:29:04.738Z,63.74
2018-12-30T01:33:11.450Z,64.29
2018-12-30T01:46:27.326Z,63.98
2018-12-30T01:55:09.951Z,64.24
2018-12-30T01:59:30.246Z,64.60
2018-12-30T02:08:40.914Z,64.34
2018-12-30T02:12:45.987Z,64.12
2018-12-30T02:16:51.119Z,64.44
2018-12-30T02:25:35.315Z,64.31
2018-12-30T02:34:53.961Z,64.38
2018-12-30T02:38:58.956Z,64.17
2018-12-30T02:43:04.240Z,64.08
2018-12-30T02:47:21.280Z,63.94
2018-12-30T02:51:26.347Z,63.94
2018-12-30T03:00:21.514Z,64.50
2018-12-30T03:04:26.571Z,64.90
2018-12-30T03:08:31.616Z,65.64
2018-12-30T03:12:37.584Z,65.03
2018-12-30T03:16:42.602Z,65.49
2018-12-30T03:20:47.648Z,65.18
2018-12-30T03:24:52.906Z,65.34
2018-12-30T03:33:28.147Z,65.59
2018-12-30T03:37:33.227Z,66.22
2018-12-30T03:41:38.369Z,66.22
2018-12-30T03:45:43.459Z,66.53
2018-12-30T03:49:48.429Z,66.69
2018-12-30T03:53:53.581Z,66.61
2018-12-30T03:57:58.635Z,67.05
2018-12-30T04:02:03.668Z,67.07
2018-12-30T04:06:08.785Z,67.00
2018-12-30T04:10:13.755Z,67.51
2018-12-30T04:14:18.820Z,67.66
2018-12-30T04:18:23.800Z,67.15
2018-12-30T04:22:28.768Z,67.52
2018-12-30T04:26:33.919Z,67.41
2018-12-30T04:30:38.949Z,67.71
2018-12-30T04:34:44.032Z,67.43
2018-12-30T04:38:49.160Z,68.04
2018-12-30T04:42:54.262Z,67.85
2018-12-30T04:46:59.359Z,68.00
2018-12-30T04:51:04.519Z,67.75
2018-12-30T04:55:09.667Z,67.62
2018-12-30T04:59:14.745Z,67.67
2018-12-30T05:03:19.805Z,68.00
2018-12-30T05:07:25.061Z,67.85
2018-12-30T05:11:30.153Z,67.77
2018-12-30T05:15:35.202Z,67.84
2018-12-30T05:19:40.185Z,68.44
2018-12-30T05:23:46.864Z,68.49
2018-12-30T05:27:51.796Z,68.89
2018-12-30T05:31:56.833Z,68.78
2018-12-30T05:36:01.854Z,68.85
2018-12-30T05:40:06.914Z,69.43
2018-12-30T05:44:11.979Z,69.48
2018-12-30T05:48:17.476Z,70.10
2018-12-30T05:52:22.576Z,69.84
2018-12-30T05:56:27.643Z,69.96
2018-12-30T06:00:32.693Z,70.20
2018-12-30T06:04:37.704Z,69.97
2018-12-30T06:08:42.743Z,70.21
2018-12-30T06:12:47.740Z,70.08
2018-12-30T06:16:52.716Z,69.81
2018-12-30T06:21:16.858Z,69.56
2018-12-30T06:25:21.855Z,69.56
2018-12-30T06:29:26.848Z,69.39
2018-12-30T06:33:31.885Z,69.52
2018-12-30T06:37:36.800Z,69.25
2018-12-30T06:41:41.873Z,69.15
2018-12-30T06:45:46.915Z,68.93
2018-12-30T06:49:51.954Z,68.92
2018-12-30T06:53:56.976Z,68.57
2018-12-30T06:58:02.019Z,68.64
2018-12-30T07:02:07.066Z,69.02
2018-12-30T07:06:12.100Z,69.02
2018-12-30T07:10:17.085Z,68.55
2018-12-30T07:14:22.226Z,68.95
2018-12-30T07:18:27.335Z,68.95
2018-12-30T07:22:32.283Z,68.59
2018-12-30T07:26:37.344Z,68.69
2018-12-30T07:30:42.390Z,69.01
2018-12-30T07:34:47.424Z,69.16
2018-12-30T07:38:54.151Z,68.91
2018-12-30T07:43:05.055Z,69.14
2018-12-30T07:47:10.034Z,69.43
2018-12-30T07:51:15.140Z,69.82
2018-12-30T07:55:20.093Z,70.03
2018-12-30T07:59:25.172Z,69.93
2018-12-30T08:03:30.071Z,70.04
2018-12-30T08:07:35.142Z,70.37
2018-12-30T08:11:40.170Z,70.33
2018-12-30T08:15:45.211Z,70.63
2018-12-30T08:20:01.922Z,70.37
2018-12-30T08:24:06.901Z,70.10
2018-12-30T08:28:11.794Z,70.07
2018-12-30T08:32:17.120Z,70.18
2018-12-30T08:36:22.028Z,70.15
2018-12-30T08:40:27.002Z,69.65
2018-12-30T08:44:32.018Z,69.41
2018-12-30T08:48:36.973Z,69.19
2018-12-30T08:52:41.935Z,69.21
2018-12-30T08:56:46.990Z,68.90
2018-12-30T09:00:51.995Z,68.26
2018-12-30T09:04:57.789Z,68.11
2018-12-30T09:09:09.844Z,68.21
2018-12-30T09:13:14.845Z,68.11
2018-12-30T09:17:19.894Z,68.23
2018-12-30T09:21:24.903Z,68.33
2018-12-30T09:25:30.000Z,68.50
2018-12-30T09:29:35.338Z,68.50
2018-12-30T09:33:40.533Z,68.73
2018-12-30T09:37:45.516Z,68.93
2018-12-30T09:41:50.668Z,68.90
2018-12-30T09:45:55.765Z,68.54
2018-12-30T09:50:00.822Z,68.17
2018-12-30T09:54:05.886Z,68.80
2018-12-30T09:58:10.920Z,68.62
2018-12-30T10:02:15.903Z,68.99
2018-12-30T10:06:20.857Z,69.30
2018-12-30T10:10:26.017Z,69.18
2018-12-30T10:14:31.003Z,68.91
2018-12-30T10:18:36.003Z,68.98
2018-12-30T10:22:40.999Z,68.48
2018-12-30T10:26:46.008Z,68.94
2018-12-30T10:30:51.005Z,69.28
2018-12-30T10:35:15.236Z,69.20
2018-12-30T10:39:20.335Z,69.42
2018-12-30T10:43:25.480Z,69.38
2018-12-30T10:52:05.723Z,69.15
2018-12-30T10:56:10.759Z,68.92
2018-12-30T11:00:18.146Z,68.56
2018-12-30T11:04:23.213Z,68.45
2018-12-30T11:08:28.315Z,68.65
2018-12-30T11:17:27.176Z,68.48
2018-12-30T11:22:25.845Z,68.36
2018-12-30T11:26:30.932Z,68.09
2018-12-30T11:35:20.060Z,68.37
2018-12-30T11:39:25.179Z,68.59
2018-12-30T11:52:22.303Z,68.12
2018-12-30T11:56:27.459Z,67.91
2018-12-30T12:00:32.620Z,68.06
2018-12-30T12:04:37.612Z,68.02
2018-12-30T12:08:42.696Z,68.09
2018-12-30T12:22:32.372Z,68.43
2018-12-30T12:26:37.434Z,68.45
2018-12-30T12:30:42.581Z,68.10
2018-12-30T12:34:47.883Z,68.10
2018-12-30T12:38:52.971Z,68.02
2018-12-30T12:43:17.190Z,67.72
2018-12-30T12:52:18.960Z,67.43
2018-12-30T12:56:24.032Z,67.51
2018-12-30T13:00:29.167Z,67.79
2018-12-30T13:04:34.254Z,67.44
2018-12-30T13:08:39.263Z,67.41
2018-12-30T13:12:44.278Z,67.36
2018-12-30T13:16:49.296Z,67.87
2018-12-30T13:20:54.839Z,67.81
2018-12-30T13:24:59.937Z,67.73
2018-12-30T13:29:04.997Z,67.38
2018-12-30T13:33:10.048Z,67.39
2018-12-30T13:37:15.209Z,67.54
2018-12-30T13:41:20.340Z,67.41
2018-12-30T13:45:25.410Z,67.57
2018-12-30T13:49:30.483Z,67.74
2018-12-30T13:53:35.502Z,67.83
2018-12-30T13:57:40.500Z,67.62
2018-12-30T14:02:04.684Z,67.46
2018-12-30T14:06:09.802Z,67.46
2018-12-30T14:10:14.872Z,67.45
2018-12-30T14:14:19.975Z,67.50
2018-12-30T14:18:25.034Z,67.16
2018-12-30T14:22:41.883Z,67.28
2018-12-30T14:26:59.958Z,67.28
2018-12-30T14:31:05.245Z,67.24
2018-12-30T14:35:10.418Z,67.13
2018-12-30T14:39:15.481Z,67.28
2018-12-30T14:43:20.433Z,67.34
2018-12-30T14:47:25.509Z,67.57
2018-12-30T14:51:30.568Z,67.41
2018-12-30T14:55:35.751Z,67.83
2018-12-30T14:59:40.744Z,67.83
2018-12-30T15:08:02.762Z,68.48
2018-12-30T15:12:07.856Z,68.48
2018-12-30T15:16:12.972Z,68.70
2018-12-30T15:20:19.603Z,68.90
2018-12-30T15:24:24.625Z,69.13
2018-12-30T15:28:29.746Z,69.46
2018-12-30T15:32:35.238Z,71.05
2018-12-30T15:36:40.135Z,72.58
2018-12-30T15:40:45.330Z,73.83
2018-12-30T15:44:50.353Z,74.77
2018-12-30T15:48:55.427Z,75.42
2018-12-30T15:53:00.510Z,76.12
2018-12-30T15:57:05.587Z,76.50
2018-12-30T16:01:10.541Z,76.82
2018-12-30T16:05:15.619Z,77.08
2018-12-30T16:09:20.727Z,77.25
2018-12-30T16:13:25.793Z,77.38
2018-12-30T16:17:30.875Z,77.44
2018-12-30T16:21:35.846Z,77.57
2018-12-30T16:25:40.845Z,77.65
2018-12-30T16:29:45.853Z,77.61
2018-12-30T16:34:03.020Z,77.59
2018-12-30T16:38:08.236Z,77.41
2018-12-30T16:42:32.580Z,77.26
2018-12-30T16:46:37.698Z,77.26
2018-12-30T16:50:42.794Z,77.40
2018-12-30T16:54:50.123Z,77.35
2018-12-30T17:03:43.314Z,77.39
2018-12-30T17:07:48.517Z,77.55
2018-12-30T17:11:53.873Z,77.74
2018-12-30T17:15:59.173Z,77.92
2018-12-30T17:20:52.925Z,78.04
2018-12-30T17:25:10.236Z,78.15
2018-12-30T17:43:21.470Z,78.43
2018-12-30T17:47:26.749Z,78.42
2018-12-30T17:51:31.776Z,78.46
2018-12-30T17:55:36.902Z,78.50
2018-12-30T17:59:41.974Z,78.53
2018-12-30T18:03:47.131Z,78.56
2018-12-30T18:07:52.214Z,78.52
2018-12-30T18:21:49.405Z,78.54
2018-12-30T18:30:33.939Z,78.49
2018-12-30T18:34:39.514Z,78.53
2018-12-30T18:43:27.174Z,78.44
2018-12-30T18:47:32.241Z,78.45
2018-12-30T18:51:45.166Z,78.48
2018-12-30T19:36:40.053Z,78.81
2018-12-30T19:40:56.753Z,78.86
2018-12-30T19:50:44.737Z,78.96
2018-12-30T19:54:50.105Z,78.90
2018-12-30T19:58:55.269Z,78.96
2018-12-30T20:03:03.349Z,78.97
2018-12-30T20:07:56.974Z,79.02
2018-12-30T20:31:02.472Z,79.20
2018-12-30T20:45:31.908Z,79.29
2018-12-30T20:54:16.702Z,79.36
2018-12-30T20:58:28.717Z,79.39
2018-12-30T21:26:26.523Z,79.63
2018-12-30T21:30:40.218Z,79.53
2018-12-30T21:44:46.063Z,79.52
2018-12-30T21:48:51.202Z,79.57
2018-12-30T21:52:56.273Z,79.61
2018-12-30T21:57:39.472Z,79.62
2018-12-30T22:01:44.475Z,79.68
2018-12-30T22:05:49.562Z,79.71
2018-12-30T22:14:10.915Z,79.72
2018-12-30T22:18:15.985Z,79.78
2018-12-30T22:22:21.037Z,79.79
2018-12-30T22:26:26.112Z,79.79
2018-12-30T22:30:31.102Z,79.84
2018-12-30T22:34:35.992Z,79.81
2018-12-30T22:38:41.088Z,79.83
2018-12-30T22:42:46.172Z,79.82
2018-12-30T23:06:37.570Z,79.82
